Time;durP1;ratioP1;P1;durP2;ratioP2;P2;SDS_P1;SDS_P2;PMS_P1;PMS_P2;Temp;Humidity;BMP_temperature;BMP_pressure;BME280_temperature;BME280_humidity;BME280_pressure;Samples;Min_cycle;Max_cycle;Signal;HPM_P1;HPM_P2
2022/04/18 00:02:21;;;;;;;7.70;4.70;;;4.20;97.30;;;;;;4975054;28;20497;-78
2022/04/18 00:04:48;;;;;;;8.40;4.20;;;4.10;97.30;;;;;;4974722;28;20209;-79
2022/04/18 00:07:14;;;;;;;11.97;5.40;;;4.10;97.30;;;;;;4974928;28;20189;-79
2022/04/18 00:09:39;;;;;;;7.53;4.67;;;4.10;97.30;;;;;;4974693;28;20422;-78
2022/04/18 00:12:06;;;;;;;6.53;4.20;;;4.00;97.30;;;;;;4974531;28;20178;-79
2022/04/18 00:14:32;;;;;;;7.57;5.10;;;4.00;97.30;;;;;;4975545;28;20210;-78
2022/04/18 00:16:58;;;;;;;5.03;4.53;;;4.00;97.30;;;;;;4974273;28;20421;-79
2022/04/18 00:19:24;;;;;;;5.83;4.20;;;4.00;97.30;;;;;;4975695;28;20659;-79
2022/04/18 00:21:50;;;;;;;10.67;4.73;;;4.00;97.30;;;;;;5007214;28;21255;-78
2022/04/18 00:24:19;;;;;;;8.83;4.90;;;4.00;97.30;;;;;;5007032;28;20438;-78
2022/04/18 00:26:45;;;;;;;7.17;4.37;;;3.90;97.30;;;;;;5006870;28;20429;-77
2022/04/18 00:29:11;;;;;;;11.00;4.97;;;3.90;97.30;;;;;;4974135;28;20836;-78
2022/04/18 00:31:37;;;;;;;8.20;4.80;;;3.90;97.30;;;;;;4974393;28;20425;-79
2022/04/18 00:34:03;;;;;;;5.97;4.30;;;3.90;97.30;;;;;;4974180;28;20524;-79
2022/04/18 00:36:29;;;;;;;13.13;5.77;;;3.90;97.30;;;;;;5006610;28;20178;-78
2022/04/18 00:38:54;;;;;;;8.90;5.17;;;3.80;97.30;;;;;;4975087;28;20410;-77
2022/04/18 00:41:20;;;;;;;8.40;5.23;;;3.80;97.30;;;;;;4974959;28;20650;-78
2022/04/18 00:43:47;;;;;;;11.77;7.13;;;3.70;97.30;;;;;;4973671;28;20221;-78
2022/04/18 00:46:17;;;;;;;12.63;6.53;;;3.70;97.30;;;;;;5006235;28;20190;-77
2022/04/18 00:48:43;;;;;;;14.20;7.17;;;3.70;97.30;;;;;;5006387;28;20422;-78
2022/04/18 00:51:19;;;;;;;11.10;6.80;;;3.70;97.30;;;;;;5006134;28;20959;-79
2022/04/18 00:53:45;;;;;;;10.90;6.37;;;3.70;97.30;;;;;;4974472;28;20464;-79
2022/04/18 00:56:13;;;;;;;11.10;6.60;;;3.70;97.30;;;;;;5005973;28;20425;-79
2022/04/18 00:58:41;;;;;;;12.03;5.10;;;3.70;97.30;;;;;;4973862;28;20414;-79
2022/04/18 01:01:07;;;;;;;12.23;6.00;;;3.60;97.30;;;;;;5006192;28;20454;-80
2022/04/18 01:03:33;;;;;;;9.63;5.80;;;3.60;97.30;;;;;;5006138;28;20844;-79
2022/04/18 01:06:00;;;;;;;9.67;6.00;;;3.50;97.30;;;;;;5006290;28;20425;-79
2022/04/18 01:08:28;;;;;;;8.03;5.90;;;3.50;97.30;;;;;;5006609;28;20191;-79
2022/04/18 01:10:54;;;;;;;7.30;5.53;;;3.50;97.30;;;;;;4974950;28;20429;-79
2022/04/18 01:13:20;;;;;;;9.30;5.60;;;3.40;97.30;;;;;;4973676;28;20501;-79
2022/04/18 01:15:50;;;;;;;7.53;5.97;;;3.40;97.30;;;;;;5006162;28;20445;-79
2022/04/18 01:18:15;;;;;;;13.43;5.53;;;3.40;97.30;;;;;;5006189;28;20414;-78
2022/04/18 01:20:42;;;;;;;9.40;5.30;;;3.40;97.30;;;;;;4973097;28;20482;-79
2022/04/18 01:23:08;;;;;;;10.70;5.33;;;3.30;97.30;;;;;;4974272;28;20173;-79
2022/04/18 01:31:02;;;;;;;8.10;5.13;;;3.20;97.30;;;;;;4974547;28;20433;-78
2022/04/18 01:33:28;;;;;;;7.37;5.40;;;3.10;97.30;;;;;;4973039;28;20497;-79
2022/04/18 01:35:53;;;;;;;10.30;5.90;;;3.10;97.30;;;;;;4974140;28;20170;-79
2022/04/18 01:38:19;;;;;;;7.93;5.00;;;3.10;97.30;;;;;;4972968;28;20233;-79
2022/04/18 01:40:44;;;;;;;9.53;5.90;;;3.10;97.30;;;;;;4973712;28;20209;-79
2022/04/18 01:43:10;;;;;;;11.57;5.07;;;3.10;97.30;;;;;;4972404;28;20190;-78
2022/04/18 01:45:35;;;;;;;9.73;4.97;;;3.00;97.30;;;;;;4972194;28;20198;-78
2022/04/18 01:48:01;;;;;;;7.13;4.97;;;3.00;97.30;;;;;;4972023;28;20696;-78
2022/04/18 01:50:27;;;;;;;7.67;5.20;;;3.00;97.30;;;;;;4973630;28;20175;-78
2022/04/18 01:52:53;;;;;;;10.40;5.43;;;2.90;97.30;;;;;;4972513;28;20201;-78
2022/04/18 01:55:19;;;;;;;7.87;4.60;;;2.90;97.30;;;;;;4972462;28;20963;-78
2022/04/18 01:57:44;;;;;;;7.13;5.37;;;2.90;97.30;;;;;;4972304;28;20653;-78
2022/04/18 02:00:10;;;;;;;8.00;4.80;;;3.00;97.30;;;;;;4972174;28;20500;-78
2022/04/18 02:02:36;;;;;;;7.23;4.70;;;3.00;97.30;;;;;;4973410;28;20218;-78
2022/04/18 02:05:01;;;;;;;7.07;5.17;;;3.00;97.30;;;;;;4973441;28;20591;-77
2022/04/18 02:07:28;;;;;;;8.60;5.03;;;2.90;97.30;;;;;;4972297;28;20201;-77
2022/04/18 02:09:55;;;;;;;6.67;5.00;;;2.90;97.30;;;;;;4973339;28;20178;-76
2022/04/18 02:12:20;;;;;;;10.80;5.67;;;2.90;97.30;;;;;;5004679;28;20517;-78
2022/04/18 02:14:47;;;;;;;8.80;5.57;;;2.80;97.30;;;;;;4972231;28;20568;-78
2022/04/18 02:17:12;;;;;;;6.80;5.20;;;2.70;97.30;;;;;;4971925;28;20556;-78
2022/04/18 02:19:38;;;;;;;11.50;4.30;;;2.70;97.30;;;;;;5004888;28;20422;-77
2022/04/18 02:22:05;;;;;;;10.80;5.37;;;2.70;97.30;;;;;;4972197;28;20642;-77
2022/04/18 02:24:31;;;;;;;8.83;5.60;;;2.70;97.30;;;;;;5008515;28;20957;-77
2022/04/18 02:26:57;;;;;;;9.23;5.10;;;2.60;97.30;;;;;;4977153;28;20430;-79
2022/04/18 02:29:23;;;;;;;8.93;5.30;;;2.60;97.30;;;;;;4975802;28;20476;-78
2022/04/18 02:34:33;;;;;;;9.50;5.17;;;2.60;97.30;;;;;;4976876;28;21008;-78
2022/04/18 02:36:59;;;;;;;5.83;5.10;;;2.50;97.30;;;;;;4975777;28;20434;-78
2022/04/18 02:39:24;;;;;;;6.63;4.27;;;2.50;97.30;;;;;;4977149;28;20170;-78
2022/04/18 02:41:50;;;;;;;10.77;5.33;;;2.40;97.30;;;;;;4975909;28;20175;-77
2022/04/18 02:44:16;;;;;;;8.97;5.67;;;2.40;97.30;;;;;;4976824;28;20186;-78
2022/04/18 02:46:41;;;;;;;8.40;5.33;;;2.30;97.30;;;;;;4975621;28;20232;-79
2022/04/18 02:49:07;;;;;;;6.13;4.70;;;2.30;97.30;;;;;;4975750;28;20182;-79
2022/04/18 02:51:32;;;;;;;11.10;5.50;;;2.30;97.30;;;;;;4976053;28;20664;-78
2022/04/18 02:53:59;;;;;;;12.73;6.40;;;2.30;97.30;;;;;;4975399;28;20217;-80
2022/04/18 02:56:24;;;;;;;6.27;4.80;;;2.30;97.30;;;;;;4975462;28;20179;-77
2022/04/18 02:58:50;;;;;;;9.10;5.13;;;2.30;97.30;;;;;;4975465;28;20410;-78
2022/04/18 03:01:15;;;;;;;10.20;5.17;;;2.20;97.30;;;;;;4975566;28;20222;-78
2022/04/18 03:03:41;;;;;;;7.10;4.80;;;2.20;97.30;;;;;;4975558;28;20731;-79
2022/04/18 03:06:07;;;;;;;5.83;4.47;;;2.20;97.30;;;;;;4975688;28;20178;-78
2022/04/18 03:08:32;;;;;;;8.60;5.20;;;2.30;97.30;;;;;;4975580;28;20178;-79
2022/04/18 03:11:08;;;;;;;10.33;4.50;;;2.30;97.30;;;;;;4977110;28;20179;-79
2022/04/18 03:13:36;;;;;;;9.33;5.07;;;2.30;97.30;;;;;;5008060;28;20206;-78
2022/04/18 03:16:03;;;;;;;7.03;5.00;;;2.30;97.30;;;;;;4976376;28;20446;-78
2022/04/18 03:18:29;;;;;;;5.90;3.90;;;2.20;97.30;;;;;;5007878;28;20952;-78
2022/04/18 03:20:55;;;;;;;6.13;4.30;;;2.20;97.30;;;;;;4975164;28;20414;-78
2022/04/18 03:23:20;;;;;;;10.10;5.10;;;2.10;97.30;;;;;;4977077;28;20379;-80
2022/04/18 03:25:46;;;;;;;10.30;5.23;;;2.10;97.30;;;;;;4978692;28;20817;-78
2022/04/18 03:28:12;;;;;;;6.30;3.93;;;2.00;97.30;;;;;;4976426;28;20181;-79
2022/04/18 03:30:38;;;;;;;5.63;4.20;;;2.00;97.30;;;;;;4979174;28;20261;-80
2022/04/18 03:33:04;;;;;;;6.73;4.20;;;2.00;97.30;;;;;;5009097;28;20178;-79
2022/04/18 03:35:30;;;;;;;8.90;4.47;;;1.90;97.30;;;;;;4975028;28;20277;-79
2022/04/18 03:40:40;;;;;;;10.93;4.60;;;1.90;97.30;;;;;;4977387;28;20568;-79
2022/04/18 03:43:06;;;;;;;7.57;5.10;;;1.90;97.30;;;;;;4976107;28;20483;-78
2022/04/18 03:45:32;;;;;;;7.13;4.70;;;1.90;97.30;;;;;;4977975;28;20191;-79
2022/04/18 03:47:57;;;;;;;7.53;5.07;;;1.80;97.30;;;;;;4977535;28;20178;-79
2022/04/18 03:50:23;;;;;;;6.63;4.20;;;1.90;97.30;;;;;;4977415;28;20422;-79
2022/04/18 03:52:48;;;;;;;7.50;4.43;;;1.80;97.30;;;;;;4976763;28;20174;-79
2022/04/18 03:55:14;;;;;;;8.60;4.40;;;1.80;97.30;;;;;;4975821;28;20792;-78
2022/04/18 03:57:40;;;;;;;8.10;4.83;;;1.80;97.30;;;;;;4974250;28;20187;-78
2022/04/18 04:00:06;;;;;;;8.00;4.63;;;1.70;97.30;;;;;;4974353;28;20179;-79
2022/04/18 04:02:32;;;;;;;5.63;4.67;;;1.70;97.30;;;;;;5006660;28;20222;-78
2022/04/18 04:04:57;;;;;;;9.10;5.00;;;1.70;97.30;;;;;;4976619;28;20446;-80
2022/04/18 04:07:23;;;;;;;5.30;4.67;;;1.70;97.30;;;;;;4977882;28;20269;-80
2022/04/18 04:09:48;;;;;;;9.70;4.53;;;1.70;97.30;;;;;;4978834;28;20182;-79
2022/04/18 04:12:21;;;;;;;8.27;4.60;;;1.60;97.30;;;;;;4980896;28;20372;-79
2022/04/18 04:14:49;;;;;;;6.63;4.30;;;1.60;97.30;;;;;;5012046;28;20221;-80
2022/04/18 04:17:15;;;;;;;9.60;5.57;;;1.60;97.30;;;;;;4977627;28;20414;-80
2022/04/18 04:19:40;;;;;;;7.97;4.93;;;1.50;97.30;;;;;;4978722;28;20430;-79
2022/04/18 04:22:06;;;;;;;10.97;5.10;;;1.50;97.30;;;;;;4979649;28;20192;-79
2022/04/18 04:24:31;;;;;;;9.80;6.87;;;1.50;97.30;;;;;;4981128;28;20202;-79
2022/04/18 04:26:57;;;;;;;6.20;4.97;;;1.50;97.30;;;;;;4979893;28;20187;-79
2022/04/18 04:29:22;;;;;;;7.00;4.90;;;1.50;97.30;;;;;;4979918;28;20179;-78
2022/04/18 04:31:48;;;;;;;10.40;5.63;;;1.50;97.30;;;;;;4981018;28;20170;-78
2022/04/18 04:34:13;;;;;;;7.40;4.93;;;1.60;97.30;;;;;;4979870;28;20206;-77
2022/04/18 04:36:40;;;;;;;8.67;4.90;;;1.60;97.30;;;;;;4980191;28;20590;-79
2022/04/18 04:39:06;;;;;;;10.40;5.53;;;1.70;97.30;;;;;;5014016;28;20181;-78
2022/04/18 04:41:31;;;;;;;7.90;4.80;;;1.70;97.30;;;;;;4980733;28;20437;-79
2022/04/18 04:43:57;;;;;;;7.27;4.97;;;1.70;97.30;;;;;;4975943;28;20680;-79
2022/04/18 04:46:23;;;;;;;7.80;4.30;;;1.70;97.30;;;;;;4981629;28;20621;-79
2022/04/18 04:48:48;;;;;;;6.33;5.03;;;1.70;97.30;;;;;;4980986;28;20426;-79
2022/04/18 04:51:14;;;;;;;8.83;5.30;;;1.70;97.30;;;;;;4981055;28;20207;-79
2022/04/18 04:53:40;;;;;;;9.47;5.23;;;1.80;97.30;;;;;;4981592;28;20260;-79
2022/04/18 04:56:05;;;;;;;9.50;5.47;;;1.80;97.30;;;;;;4981271;28;20177;-78
2022/04/18 04:58:31;;;;;;;8.33;4.63;;;1.90;97.30;;;;;;4966125;28;20272;-80
2022/04/18 05:00:57;;;;;;;8.53;4.77;;;1.90;97.30;;;;;;4967893;28;20171;-80
2022/04/18 05:03:24;;;;;;;8.13;4.93;;;2.00;97.30;;;;;;4978695;28;20175;-80
2022/04/18 05:05:49;;;;;;;11.43;5.80;;;2.00;97.30;;;;;;5010506;28;20676;-80
2022/04/18 05:08:15;;;;;;;7.40;5.20;;;2.10;97.30;;;;;;4979174;28;20432;-80
2022/04/18 05:10:41;;;;;;;7.73;4.23;;;2.10;97.30;;;;;;4979627;28;20187;-80
2022/04/18 05:13:06;;;;;;;10.97;5.97;;;2.20;97.30;;;;;;4980522;28;20186;-80
2022/04/18 05:15:33;;;;;;;11.93;5.20;;;2.20;97.30;;;;;;4981213;28;20198;-80
2022/04/18 05:17:58;;;;;;;10.70;4.90;;;2.30;97.30;;;;;;4982847;28;20171;-80
2022/04/18 05:20:24;;;;;;;9.57;5.23;;;2.40;97.30;;;;;;4979913;28;20430;-79
2022/04/18 05:22:50;;;;;;;10.93;5.63;;;2.50;97.30;;;;;;4973973;28;20277;-79
2022/04/18 05:25:15;;;;;;;12.43;5.20;;;2.60;97.30;;;;;;4973689;28;20202;-79
2022/04/18 05:27:41;;;;;;;8.90;5.23;;;2.60;97.30;;;;;;4974192;28;20216;-78
2022/04/18 05:30:07;;;;;;;7.27;4.73;;;2.70;97.30;;;;;;4976980;28;20187;-80
2022/04/18 05:32:33;;;;;;;7.20;5.07;;;2.80;97.30;;;;;;4980522;28;20186;-80
2022/04/18 05:34:58;;;;;;;10.53;6.50;;;2.90;97.30;;;;;;4975516;28;20476;-80
2022/04/18 05:37:24;;;;;;;18.53;5.97;;;3.00;97.30;;;;;;4976829;28;20175;-79
2022/04/18 05:39:49;;;;;;;11.70;6.63;;;3.10;97.30;;;;;;4976363;28;20206;-79
2022/04/18 05:42:15;;;;;;;9.60;5.47;;;3.20;97.30;;;;;;4974308;28;20179;-79
2022/04/18 05:44:40;;;;;;;10.87;6.37;;;3.40;97.30;;;;;;4975494;28;20807;-80
2022/04/18 05:47:06;;;;;;;14.10;5.77;;;3.50;97.30;;;;;;4975882;28;20632;-79
2022/04/18 05:49:32;;;;;;;11.87;6.00;;;3.60;97.30;;;;;;4975363;28;20535;-80
2022/04/18 05:51:57;;;;;;;10.53;5.53;;;3.70;97.30;;;;;;4975154;28;20191;-79
2022/04/18 05:54:23;;;;;;;12.67;5.80;;;3.90;97.30;;;;;;4975912;28;20588;-79
2022/04/18 05:56:48;;;;;;;10.00;5.30;;;4.00;97.30;;;;;;4977498;28;20186;-80
2022/04/18 05:59:14;;;;;;;12.43;6.10;;;4.20;97.30;;;;;;4978490;28;20184;-79
2022/04/18 06:01:40;;;;;;;12.00;5.97;;;4.30;97.30;;;;;;4976373;28;20579;-79
2022/04/18 06:04:06;;;;;;;8.63;4.93;;;4.40;97.30;;;;;;4978598;28;20194;-80
2022/04/18 06:06:32;;;;;;;11.60;6.47;;;4.50;97.30;;;;;;4983943;28;20465;-80
2022/04/18 06:08:57;;;;;;;14.67;6.10;;;4.70;97.30;;;;;;4981635;28;20178;-78
2022/04/18 06:11:23;;;;;;;13.90;6.00;;;4.80;97.30;;;;;;4979327;28;20183;-81
2022/04/18 06:13:48;;;;;;;11.40;6.07;;;4.90;97.30;;;;;;4986370;28;20277;-81
2022/04/18 06:16:14;;;;;;;9.30;5.33;;;5.00;97.30;;;;;;4986098;28;20175;-80
2022/04/18 06:18:40;;;;;;;13.50;5.10;;;5.20;97.30;;;;;;4984353;28;20245;-79
2022/04/18 06:21:06;;;;;;;11.63;5.90;;;5.30;97.30;;;;;;4978737;28;20591;-81
2022/04/18 06:23:32;;;;;;;11.93;5.80;;;5.40;97.30;;;;;;4982576;28;20196;-81
2022/04/18 06:25:57;;;;;;;9.90;5.97;;;5.60;97.30;;;;;;4985301;28;20187;-81
2022/04/18 06:28:23;;;;;;;8.30;4.87;;;5.70;97.30;;;;;;4983602;28;20253;-80
2022/04/18 06:30:48;;;;;;;10.30;4.77;;;5.80;97.30;;;;;;4981823;28;20278;-81
2022/04/18 06:33:14;;;;;;;11.13;5.60;;;5.90;97.30;;;;;;4983793;28;20218;-82
2022/04/18 06:35:41;;;;;;;8.20;5.23;;;6.00;97.30;;;;;;4985988;28;20202;-80
2022/04/18 06:38:08;;;;;;;9.53;5.80;;;6.10;97.30;;;;;;4984594;28;20425;-80
2022/04/18 06:40:34;;;;;;;12.40;6.47;;;6.20;97.30;;;;;;5006068;28;20422;-78
2022/04/18 06:42:59;;;;;;;11.83;5.63;;;6.40;97.30;;;;;;4973585;28;20422;-79
2022/04/18 06:45:28;;;;;;;11.27;6.10;;;6.50;97.30;;;;;;4972605;28;20901;-76
2022/04/18 06:47:53;;;;;;;11.17;5.80;;;6.60;97.30;;;;;;4971936;28;20179;-78
2022/04/18 06:50:19;;;;;;;9.77;6.23;;;6.70;97.30;;;;;;4972014;28;20908;-78
2022/04/18 06:52:46;;;;;;;13.97;6.20;;;6.80;97.30;;;;;;4972064;28;20218;-79
2022/04/18 06:55:12;;;;;;;12.07;5.77;;;7.00;97.30;;;;;;4972018;28;20222;-78
2022/04/18 06:57:38;;;;;;;10.80;5.93;;;7.20;97.30;;;;;;4972253;28;20414;-78
2022/04/18 07:00:05;;;;;;;8.83;5.47;;;7.30;97.30;;;;;;4972632;28;20476;-78
2022/04/18 07:02:32;;;;;;;10.20;6.30;;;7.40;97.30;;;;;;4971743;28;20890;-79
2022/04/18 07:04:57;;;;;;;13.33;6.07;;;7.50;97.30;;;;;;4972595;28;20450;-79
2022/04/18 07:07:23;;;;;;;12.77;5.77;;;7.60;97.30;;;;;;4972802;28;20549;-78
2022/04/18 07:09:49;;;;;;;17.47;7.10;;;7.70;97.30;;;;;;4974515;28;20175;-80
2022/04/18 07:12:14;;;;;;;16.90;9.07;;;7.90;97.30;;;;;;4976585;28;20183;-78
2022/04/18 07:14:41;;;;;;;12.03;6.40;;;8.00;97.30;;;;;;4958696;28;20297;-80
2022/04/18 07:17:07;;;;;;;13.53;6.43;;;8.10;97.10;;;;;;4963871;28;20183;-83
2022/04/18 07:19:33;;;;;;;14.67;6.03;;;8.20;97.20;;;;;;4968384;28;20422;-82
2022/04/18 07:21:59;;;;;;;15.73;7.33;;;8.30;96.70;;;;;;4976985;28;20786;-83
2022/04/18 07:24:25;;;;;;;12.03;6.27;;;8.40;96.70;;;;;;4976993;28;20895;-84
2022/04/18 07:26:51;;;;;;;11.37;5.90;;;8.50;96.30;;;;;;4977176;28;20446;-82
2022/04/18 07:29:17;;;;;;;11.80;6.20;;;8.60;95.60;;;;;;4981790;28;20185;-82
2022/04/18 07:31:43;;;;;;;16.27;6.40;;;8.70;95.10;;;;;;4981646;28;20422;-82
2022/04/18 07:34:09;;;;;;;10.50;6.40;;;8.80;95.00;;;;;;4982060;28;20477;-82
2022/04/18 07:36:35;;;;;;;10.40;6.00;;;8.90;94.40;;;;;;4982247;28;20414;-82
2022/04/18 07:39:01;;;;;;;14.23;7.20;;;9.00;94.80;;;;;;4980045;28;20183;-80
2022/04/18 07:41:28;;;;;;;11.90;6.73;;;9.20;94.50;;;;;;4979428;28;20496;-81
2022/04/18 07:43:56;;;;;;;11.43;6.47;;;9.30;94.30;;;;;;4979724;28;20538;-82
2022/04/18 07:46:22;;;;;;;12.83;6.63;;;9.40;93.70;;;;;;4979772;28;20492;-82
2022/04/18 07:48:49;;;;;;;13.40;6.70;;;9.50;92.90;;;;;;4981173;28;20501;-82
2022/04/18 07:54:02;;;;;;;12.63;6.50;;;9.70;92.40;;;;;;4980334;28;20467;-83
2022/04/18 07:56:28;;;;;;;12.60;7.33;;;9.90;92.10;;;;;;4977400;28;20457;-82
2022/04/18 07:58:54;;;;;;;13.17;6.20;;;10.00;92.10;;;;;;4977110;28;20418;-85
2022/04/18 08:01:21;;;;;;;10.60;5.07;;;10.10;90.00;;;;;;4978235;28;20967;-81
2022/04/18 08:03:47;;;;;;;11.20;5.80;;;10.20;90.20;;;;;;4976144;28;20660;-79
2022/04/18 08:06:13;;;;;;;11.73;5.60;;;10.30;88.60;;;;;;4976671;28;20429;-79
2022/04/18 08:08:39;;;;;;;16.87;6.80;;;10.40;89.90;;;;;;4974329;28;20910;-76
2022/04/18 08:11:05;;;;;;;11.13;6.63;;;10.70;89.20;;;;;;4972221;28;20195;-76
2022/04/18 08:13:31;;;;;;;11.67;5.80;;;11.10;88.50;;;;;;4971853;28;20458;-76
2022/04/18 08:15:57;;;;;;;12.97;6.13;;;11.20;88.40;;;;;;4979031;28;20201;-76
2022/04/18 08:18:23;;;;;;;11.63;5.30;;;11.40;87.20;;;;;;4986805;28;20470;-75
2022/04/18 08:20:49;;;;;;;11.57;6.40;;;11.60;87.20;;;;;;4970055;28;20211;-76
2022/04/18 08:23:14;;;;;;;11.10;5.90;;;11.70;86.40;;;;;;5002541;28;20177;-80
2022/04/18 08:25:40;;;;;;;12.47;5.67;;;11.90;86.30;;;;;;5003814;28;20433;-79
2022/04/18 08:28:06;;;;;;;11.90;6.63;;;12.00;85.60;;;;;;4976554;28;20551;-79
2022/04/18 08:30:31;;;;;;;13.90;6.27;;;12.00;85.00;;;;;;4974466;28;20179;-80
2022/04/18 08:32:57;;;;;;;10.70;5.90;;;11.90;86.60;;;;;;4984379;28;20185;-80
2022/04/18 08:35:22;;;;;;;8.60;6.37;;;12.00;86.00;;;;;;4974449;28;20771;-80
2022/04/18 08:37:48;;;;;;;11.20;5.87;;;12.00;85.20;;;;;;4973282;28;20273;-80
2022/04/18 08:40:14;;;;;;;11.80;6.17;;;12.10;85.10;;;;;;4974365;28;20181;-79
2022/04/18 08:42:41;;;;;;;10.73;5.77;;;12.10;85.40;;;;;;4973580;28;20748;-80
2022/04/18 08:45:13;;;;;;;12.27;6.23;;;12.30;84.30;;;;;;4983136;28;20208;-80
2022/04/18 08:53:11;;;;;;;7.30;4.20;;;12.50;82.60;;;;;;4972651;28;20440;-80
2022/04/18 08:55:37;;;;;;;10.50;4.83;;;12.50;78.70;;;;;;4973903;28;20457;-80
2022/04/18 08:58:07;;;;;;;11.13;5.70;;;12.50;81.30;;;;;;4971870;28;20421;-80
2022/04/18 09:00:33;;;;;;;9.97;4.70;;;12.50;81.90;;;;;;4973955;28;20171;-80
2022/04/18 09:02:59;;;;;;;9.40;4.83;;;12.60;79.60;;;;;;4972686;28;20938;-81
2022/04/18 09:05:25;;;;;;;9.77;5.53;;;12.60;78.90;;;;;;4974605;28;20660;-80
2022/04/18 09:08:01;;;;;;;10.73;4.90;;;12.60;78.70;;;;;;4975253;28;20484;-80
2022/04/18 09:10:28;;;;;;;10.07;5.53;;;12.70;78.60;;;;;;4974703;28;20178;-80
2022/04/18 09:13:01;;;;;;;9.10;5.23;;;12.80;78.20;;;;;;5007283;28;20484;-80
2022/04/18 09:15:33;;;;;;;9.90;5.67;;;12.90;77.90;;;;;;4992924;28;21034;-79
2022/04/18 09:18:17;;;;;;;10.80;4.70;;;12.90;77.30;;;;;;5006610;28;20467;-80
2022/04/18 09:20:45;;;;;;;10.50;5.07;;;12.90;76.10;;;;;;4975546;28;20397;-80
2022/04/18 09:23:19;;;;;;;10.73;5.00;;;13.00;76.80;;;;;;5007679;28;20422;-80
2022/04/18 09:25:44;;;;;;;8.53;4.83;;;13.20;77.20;;;;;;5009915;28;20429;-80
2022/04/18 09:28:11;;;;;;;8.30;3.90;;;13.40;76.40;;;;;;5006040;28;20418;-79
2022/04/18 09:30:37;;;;;;;7.50;3.90;;;13.30;73.10;;;;;;4974550;28;20241;-80
2022/04/18 09:33:07;;;;;;;9.03;4.00;;;13.20;72.00;;;;;;4977428;28;20423;-80
2022/04/18 09:35:35;;;;;;;9.27;4.40;;;13.20;73.10;;;;;;4978426;28;20995;-81
2022/04/18 09:38:08;;;;;;;7.83;3.60;;;13.30;74.20;;;;;;4975302;28;20517;-80
2022/04/18 09:40:36;;;;;;;8.10;3.93;;;13.30;72.30;;;;;;4975945;28;20418;-79
2022/04/18 09:43:03;;;;;;;7.23;3.83;;;13.30;72.60;;;;;;4975619;28;20426;-79
2022/04/18 09:45:28;;;;;;;8.03;4.40;;;13.40;72.70;;;;;;4977815;28;20532;-80
2022/04/18 09:47:55;;;;;;;8.13;4.73;;;13.50;74.00;;;;;;4975989;28;20453;-81
2022/04/18 09:53:08;;;;;;;7.90;4.50;;;13.70;75.10;;;;;;4978116;28;20456;-80
2022/04/18 09:55:34;;;;;;;7.03;4.67;;;13.80;73.70;;;;;;4976065;28;20469;-80
2022/04/18 09:58:04;;;;;;;12.33;4.40;;;13.80;73.90;;;;;;4974711;28;20966;-79
2022/04/18 10:00:30;;;;;;;6.77;4.30;;;13.80;73.80;;;;;;4971928;28;20425;-80
2022/04/18 10:02:57;;;;;;;7.50;4.80;;;13.90;72.40;;;;;;4974763;28;20470;-79
2022/04/18 10:05:25;;;;;;;6.73;4.30;;;14.10;74.00;;;;;;4975288;28;20198;-79
2022/04/18 10:07:51;;;;;;;7.07;4.37;;;14.30;73.20;;;;;;4975581;28;20453;-79
2022/04/18 10:10:18;;;;;;;6.03;4.00;;;14.40;73.80;;;;;;4959759;28;20799;-79
2022/04/18 10:12:43;;;;;;;6.30;3.70;;;14.50;74.80;;;;;;4962437;28;20417;-81
2022/04/18 10:15:09;;;;;;;6.77;4.00;;;14.60;73.60;;;;;;4974975;28;20473;-82
2022/04/18 10:17:38;;;;;;;7.13;3.90;;;14.50;71.80;;;;;;4977484;28;20574;-80
2022/04/18 10:20:18;;;;;;;7.60;3.83;;;14.40;72.70;;;;;;4975813;28;20266;-83
2022/04/18 10:23:05;;;;;;;9.07;4.23;;;14.40;72.50;;;;;;4974758;28;20940;-84
2022/04/18 10:26:04;;;;;;;7.07;4.10;;;14.50;70.90;;;;;;4985931;28;20439;-82
2022/04/18 10:28:37;;;;;;;8.80;3.67;;;14.50;70.00;;;;;;4987779;28;20501;-81
2022/04/18 10:31:09;;;;;;;5.77;3.90;;;14.70;69.70;;;;;;4957890;28;20450;-82
2022/04/18 10:33:35;;;;;;;8.87;4.57;;;14.80;70.30;;;;;;4969888;28;20463;-82
2022/04/18 10:36:03;;;;;;;4.63;3.90;;;14.90;71.20;;;;;;4978464;28;20536;-82
2022/04/18 10:38:36;;;;;;;6.50;3.37;;;15.10;69.90;;;;;;4993003;28;20424;-82
2022/04/18 10:41:22;;;;;;;6.13;3.37;;;15.30;71.30;;;;;;4992929;28;20405;-83
2022/04/18 10:43:58;;;;;;;4.90;3.40;;;15.50;70.30;;;;;;4974226;28;20935;-83
2022/04/18 10:46:24;;;;;;;6.90;3.90;;;15.60;70.30;;;;;;4963054;28;20422;-83
2022/04/18 10:48:59;;;;;;;5.33;3.47;;;15.70;67.60;;;;;;4957317;28;20789;-82
2022/04/18 10:51:36;;;;;;;6.03;3.50;;;15.80;70.80;;;;;;4988880;28;20467;-83
2022/04/18 10:54:13;;;;;;;6.87;3.57;;;15.90;70.50;;;;;;4975553;28;20691;-84
2022/04/18 10:56:56;;;;;;;5.80;3.83;;;15.80;69.60;;;;;;4977205;28;20406;-83
2022/04/18 10:59:31;;;;;;;6.37;3.67;;;15.70;68.70;;;;;;4975523;28;20525;-83
2022/04/18 11:01:58;;;;;;;4.87;3.47;;;15.70;68.70;;;;;;4975811;28;20456;-83
2022/04/18 11:04:29;;;;;;;5.83;3.80;;;15.80;69.50;;;;;;4976145;28;20434;-83
2022/04/18 11:07:03;;;;;;;5.03;3.30;;;16.20;70.90;;;;;;4982396;28;20809;-83
2022/04/18 11:09:32;;;;;;;7.57;3.73;;;16.30;71.10;;;;;;4994936;28;20419;-82
2022/04/18 11:12:14;;;;;;;7.67;3.50;;;16.40;69.50;;;;;;4986069;28;20418;-82
2022/04/18 11:14:51;;;;;;;5.23;3.50;;;16.20;67.80;;;;;;4995374;28;20477;-80
2022/04/18 11:17:26;;;;;;;4.80;3.03;;;16.10;68.50;;;;;;4977501;28;20970;-81
2022/04/18 11:19:51;;;;;;;6.47;3.50;;;16.00;67.60;;;;;;4988026;28;20452;-82
2022/04/18 11:22:22;;;;;;;5.97;2.90;;;16.10;68.50;;;;;;4978193;28;20434;-80
2022/04/18 11:24:56;;;;;;;5.10;3.10;;;16.20;67.20;;;;;;4976485;28;20213;-82
2022/04/18 11:27:23;;;;;;;4.23;2.77;;;16.30;69.10;;;;;;4991992;28;20429;-81
2022/04/18 11:29:53;;;;;;;3.90;2.80;;;16.50;69.30;;;;;;4977750;28;20421;-82
2022/04/18 11:32:21;;;;;;;5.20;2.90;;;16.50;68.90;;;;;;4993014;28;20425;-82
2022/04/18 11:34:49;;;;;;;2.80;2.40;;;16.60;70.30;;;;;;4978820;28;21006;-82
2022/04/18 11:37:28;;;;;;;6.00;3.50;;;16.80;70.40;;;;;;4979282;28;20426;-82
2022/04/18 11:39:56;;;;;;;6.03;2.97;;;17.00;68.40;;;;;;4996591;28;20461;-82
2022/04/18 11:42:24;;;;;;;7.20;3.10;;;17.00;68.20;;;;;;4985463;28;20437;-82
2022/04/18 11:44:52;;;;;;;4.43;3.00;;;17.10;68.20;;;;;;4996019;28;20468;-82
2022/04/18 11:47:26;;;;;;;3.70;2.40;;;17.20;65.90;;;;;;4998848;28;20513;-82
2022/04/18 11:49:58;;;;;;;4.57;2.73;;;17.20;67.30;;;;;;4974223;28;20445;-81
2022/04/18 11:52:30;;;;;;;6.47;3.13;;;17.00;65.90;;;;;;5010097;28;20452;-82
2022/04/18 11:55:09;;;;;;;5.80;3.03;;;17.10;69.70;;;;;;4977376;28;20484;-81
2022/04/18 11:57:36;;;;;;;5.30;3.10;;;17.10;68.90;;;;;;5001243;28;20417;-82
2022/04/18 12:00:14;;;;;;;6.20;3.30;;;17.20;67.30;;;;;;4976344;28;20429;-81
2022/04/18 12:08:12;;;;;;;2.80;2.47;;;17.80;66.80;;;;;;4989155;28;20560;-82
2022/04/18 12:10:44;;;;;;;5.70;3.37;;;17.80;66.80;;;;;;4977860;28;20418;-82
2022/04/18 12:13:12;;;;;;;4.20;3.07;;;17.80;65.80;;;;;;4974684;28;20426;-81
2022/04/18 12:15:39;;;;;;;4.67;2.50;;;17.70;66.40;;;;;;4974604;28;20528;-81
2022/04/18 12:18:15;;;;;;;7.67;2.80;;;17.80;66.90;;;;;;4975390;28;20426;-81
2022/04/18 12:20:49;;;;;;;4.23;2.70;;;17.90;64.80;;;;;;4981766;28;20476;-82
2022/04/18 12:23:25;;;;;;;4.20;2.70;;;17.80;63.90;;;;;;4975840;28;20430;-81
2022/04/18 12:25:53;;;;;;;2.90;2.60;;;17.90;65.00;;;;;;5008167;28;20856;-82
2022/04/18 12:28:21;;;;;;;7.50;3.10;;;18.00;65.70;;;;;;4975410;28;20422;-82
2022/04/18 12:30:47;;;;;;;3.83;2.40;;;18.20;66.00;;;;;;4975947;28;20478;-82
2022/04/18 12:33:27;;;;;;;3.23;2.30;;;18.40;65.30;;;;;;4975306;28;20421;-82
2022/04/18 12:35:53;;;;;;;4.30;3.13;;;18.50;65.20;;;;;;4974913;28;20442;-81
2022/04/18 12:38:34;;;;;;;4.37;3.30;;;18.70;65.80;;;;;;4976544;28;20480;-82
2022/04/18 12:41:00;;;;;;;4.27;2.80;;;18.80;65.10;;;;;;4975723;28;20437;-83
2022/04/18 12:43:28;;;;;;;5.70;3.03;;;18.90;64.20;;;;;;4973260;28;20841;-83
2022/04/18 12:45:59;;;;;;;5.73;3.10;;;18.70;62.40;;;;;;4974481;28;20441;-83
2022/04/18 12:48:29;;;;;;;4.07;2.53;;;18.70;64.30;;;;;;4974543;28;20414;-83
2022/04/18 12:50:57;;;;;;;4.97;3.27;;;18.80;64.10;;;;;;4974776;28;20805;-82
2022/04/18 12:53:44;;;;;;;3.37;2.60;;;19.10;63.60;;;;;;5007759;28;20418;-82
2022/04/18 12:56:10;;;;;;;5.07;3.23;;;19.40;64.60;;;;;;5008354;28;20512;-82
2022/04/18 12:58:38;;;;;;;5.87;4.07;;;19.70;63.30;;;;;;4975257;28;20442;-82
2022/04/18 13:01:04;;;;;;;5.50;3.80;;;19.80;63.80;;;;;;4971982;28;20183;-81
2022/04/18 13:03:29;;;;;;;6.90;4.00;;;19.80;63.10;;;;;;4987716;28;20399;-81
2022/04/18 13:05:55;;;;;;;21.40;3.40;;;19.60;62.10;;;;;;4956463;28;20557;-82
2022/04/18 13:08:21;;;;;;;5.03;3.57;;;19.40;63.50;;;;;;4984828;28;20274;-82
2022/04/18 13:10:55;;;;;;;12.30;3.50;;;19.20;63.00;;;;;;4987290;28;20799;-82
2022/04/18 13:13:21;;;;;;;4.33;3.30;;;19.40;64.10;;;;;;4986378;28;20402;-82
2022/04/18 13:15:48;;;;;;;3.63;2.57;;;19.50;62.20;;;;;;4986969;28;20895;-83
2022/04/18 13:18:22;;;;;;;2.93;2.50;;;19.60;64.60;;;;;;4985440;28;20186;-82
2022/04/18 13:20:48;;;;;;;3.50;2.97;;;19.80;64.50;;;;;;4984984;28;20423;-83